createdAt,value
2023-05-07T00:00:46.830Z,8.80
2023-05-07T00:05:49.367Z,9.00
2023-05-07T00:10:51.884Z,9.10
2023-05-07T00:15:54.561Z,9.10
2023-05-07T00:20:57.466Z,9.00
2023-05-07T00:26:00.179Z,8.90
2023-05-07T00:31:02.708Z,8.70
2023-05-07T00:36:05.453Z,8.60
2023-05-07T00:41:07.999Z,8.50
2023-05-07T00:46:11.280Z,8.60
2023-05-07T00:51:14.197Z,8.50
2023-05-07T00:56:17.184Z,8.60
2023-05-07T01:01:19.756Z,8.40
2023-05-07T01:06:24.334Z,8.30
2023-05-07T01:11:27.469Z,8.20
2023-05-07T01:16:30.072Z,8.10
2023-05-07T01:21:35.962Z,7.80
2023-05-07T01:26:40.932Z,7.70
2023-05-07T01:31:44.784Z,7.60
2023-05-07T01:36:48.100Z,7.40
2023-05-07T01:41:50.843Z,7.30
2023-05-07T01:46:54.688Z,7.20
2023-05-07T01:51:57.174Z,7.40
2023-05-07T01:56:59.983Z,7.40
2023-05-07T02:02:03.010Z,7.60
2023-05-07T02:07:06.760Z,7.70
2023-05-07T02:12:09.760Z,7.60
2023-05-07T02:17:12.455Z,7.80
2023-05-07T02:22:14.894Z,8.00
2023-05-07T02:27:17.517Z,8.00
2023-05-07T02:32:21.387Z,7.80
2023-05-07T02:37:23.849Z,7.80
2023-05-07T02:42:26.641Z,8.10
2023-05-07T02:47:29.722Z,8.00
2023-05-07T02:52:34.418Z,7.80
2023-05-07T02:57:36.909Z,7.80
2023-05-07T03:02:40.765Z,8.00
2023-05-07T03:07:46.363Z,8.10
2023-05-07T03:12:50.042Z,8.00
2023-05-07T03:17:53.745Z,8.10
2023-05-07T03:22:56.406Z,7.90
2023-05-07T03:27:59.427Z,8.00
2023-05-07T03:33:10.167Z,8.10
2023-05-07T03:38:13.418Z,8.10
2023-05-07T03:43:16.086Z,8.20
2023-05-07T03:48:23.851Z,8.10
2023-05-07T03:53:28.305Z,8.20
2023-05-07T03:58:30.879Z,8.20
2023-05-07T04:03:36.710Z,8.10
2023-05-07T04:08:39.993Z,8.20
2023-05-07T04:13:43.789Z,8.40
2023-05-07T04:18:46.446Z,8.10
2023-05-07T04:23:49.401Z,8.10
2023-05-07T04:28:51.994Z,8.30
2023-05-07T04:33:54.570Z,8.50
2023-05-07T04:38:57.729Z,8.70
2023-05-07T04:44:00.404Z,9.00
2023-05-07T04:49:06.766Z,9.30
2023-05-07T04:54:09.420Z,9.50
2023-05-07T04:59:12.016Z,9.60
2023-05-07T05:04:17.744Z,9.70
2023-05-07T05:09:20.453Z,9.90
2023-05-07T05:14:23.057Z,10.40
2023-05-07T05:19:27.630Z,10.30
2023-05-07T05:24:30.176Z,10.40
2023-05-07T05:29:32.846Z,10.10
2023-05-07T05:34:35.776Z,10.30
2023-05-07T05:39:39.211Z,10.70
2023-05-07T05:44:43.754Z,10.90
2023-05-07T05:49:46.555Z,10.60
2023-05-07T05:54:51.777Z,11.00
2023-05-07T05:59:55.968Z,11.60
2023-05-07T06:04:58.590Z,11.60
2023-05-07T06:10:02.152Z,11.70
2023-05-07T06:15:08.140Z,11.80
2023-05-07T06:20:11.396Z,11.80
2023-05-07T06:25:15.794Z,12.00
2023-05-07T06:30:19.718Z,12.00
2023-05-07T06:35:22.528Z,12.00
2023-05-07T06:40:24.983Z,12.00
2023-05-07T06:45:27.734Z,11.80
2023-05-07T06:50:31.826Z,11.90
2023-05-07T06:55:35.546Z,12.20
2023-05-07T07:00:38.226Z,12.70
2023-05-07T07:05:45.089Z,12.70
2023-05-07T07:10:47.972Z,12.90
2023-05-07T07:15:50.984Z,13.20
2023-05-07T07:20:54.535Z,13.50
2023-05-07T07:25:57.294Z,13.80
2023-05-07T07:31:00.810Z,13.90
2023-05-07T07:36:07.441Z,14.20
2023-05-07T07:41:10.523Z,14.50
2023-05-07T07:46:13.859Z,14.70
2023-05-07T07:51:18.308Z,14.70
2023-05-07T07:56:21.768Z,14.50
2023-05-07T08:01:24.532Z,14.30
2023-05-07T08:06:27.980Z,14.40
2023-05-07T08:11:31.585Z,14.30
2023-05-07T08:16:35.206Z,14.50
2023-05-07T08:21:41.047Z,14.60
2023-05-07T08:26:47.624Z,14.50
2023-05-07T08:31:50.642Z,14.30
2023-05-07T08:36:53.475Z,14.10
2023-05-07T08:42:03.255Z,14.60
2023-05-07T08:47:08.708Z,14.90
2023-05-07T08:52:13.843Z,15.00
2023-05-07T08:57:16.990Z,15.20
2023-05-07T09:02:20.055Z,15.10
2023-05-07T09:07:23.614Z,14.70
2023-05-07T09:12:26.477Z,14.70
2023-05-07T09:17:30.135Z,14.70
2023-05-07T09:22:34.176Z,14.60
2023-05-07T09:27:43.194Z,14.50
2023-05-07T09:32:45.934Z,14.40
2023-05-07T09:38:01.106Z,14.40
2023-05-07T09:43:14.831Z,14.40
2023-05-07T09:48:28.295Z,14.50
2023-05-07T09:53:33.233Z,14.40
2023-05-07T09:58:39.151Z,14.60
2023-05-07T10:03:44.396Z,14.70
2023-05-07T10:08:49.321Z,14.60
2023-05-07T10:13:54.455Z,14.40
2023-05-07T10:19:00.197Z,14.30
2023-05-07T10:24:37.831Z,14.60
2023-05-07T10:30:14.318Z,14.90
2023-05-07T10:35:27.307Z,15.10
2023-05-07T10:40:32.235Z,15.20
2023-05-07T10:45:35.539Z,15.20
2023-05-07T10:50:41.919Z,15.30
2023-05-07T10:55:53.659Z,15.00
2023-05-07T11:01:03.353Z,15.00
2023-05-07T11:06:17.353Z,14.50
2023-05-07T11:11:54.249Z,14.60
2023-05-07T11:17:13.881Z,14.80
2023-05-07T11:22:31.797Z,15.10
2023-05-07T11:27:56.085Z,15.40
2023-05-07T11:32:59.977Z,15.30
2023-05-07T11:38:03.335Z,15.10
2023-05-07T11:43:12.714Z,15.30
2023-05-07T11:48:16.083Z,15.50
2023-05-07T11:53:18.527Z,15.40
2023-05-07T11:58:26.669Z,15.30
2023-05-07T12:03:31.922Z,15.30
2023-05-07T12:08:39.923Z,15.50
2023-05-07T12:13:42.636Z,15.30
2023-05-07T12:18:46.069Z,15.30
2023-05-07T12:23:49.135Z,15.30
2023-05-07T12:28:51.834Z,15.80
2023-05-07T12:33:54.235Z,15.40
2023-05-07T12:38:56.727Z,15.20
2023-05-07T12:43:59.422Z,15.80
2023-05-07T12:49:02.118Z,15.60
2023-05-07T12:54:04.741Z,15.40
2023-05-07T12:59:07.237Z,15.40
2023-05-07T13:04:09.792Z,15.50
2023-05-07T13:09:12.263Z,15.50
2023-05-07T13:14:14.981Z,15.70
2023-05-07T13:19:18.530Z,15.50
2023-05-07T13:24:21.118Z,15.40
2023-05-07T13:29:30.920Z,15.50
2023-05-07T13:34:33.476Z,15.90
2023-05-07T13:39:35.979Z,16.20
2023-05-07T13:44:38.482Z,16.10
2023-05-07T13:49:41.027Z,16.00
2023-05-07T13:54:43.758Z,16.10
2023-05-07T13:59:46.329Z,16.00
2023-05-07T14:04:48.797Z,15.90
2023-05-07T14:09:51.297Z,15.90
2023-05-07T14:14:53.802Z,15.70
2023-05-07T14:19:59.455Z,15.30
2023-05-07T14:25:06.767Z,14.60
2023-05-07T14:30:10.076Z,14.50
2023-05-07T14:35:12.826Z,14.60
2023-05-07T14:40:15.897Z,14.40
2023-05-07T14:45:19.303Z,14.00
2023-05-07T14:50:21.914Z,13.80
2023-05-07T14:55:24.445Z,14.40
2023-05-07T15:00:27.256Z,14.80
2023-05-07T15:05:29.804Z,14.70
2023-05-07T15:10:32.270Z,14.50
2023-05-07T15:15:35.900Z,14.50
2023-05-07T15:20:38.926Z,14.90
2023-05-07T15:25:41.889Z,15.30
2023-05-07T15:30:44.301Z,15.50
2023-05-07T15:35:46.779Z,15.70
2023-05-07T15:40:50.966Z,15.70
2023-05-07T15:45:54.312Z,15.40
2023-05-07T15:50:56.889Z,15.70
2023-05-07T15:55:59.320Z,15.70
2023-05-07T16:01:01.888Z,15.50
2023-05-07T16:06:06.060Z,15.20
2023-05-07T16:11:08.529Z,15.00
2023-05-07T16:16:11.105Z,15.00
2023-05-07T16:21:13.900Z,15.00
2023-05-07T16:26:16.686Z,14.90
2023-05-07T16:31:19.546Z,15.10
2023-05-07T16:36:22.846Z,15.30
2023-05-07T16:41:26.159Z,15.40
2023-05-07T16:46:28.668Z,15.60
2023-05-07T16:51:31.146Z,15.80
2023-05-07T16:56:33.667Z,15.70
2023-05-07T17:01:36.261Z,15.40
2023-05-07T17:06:38.755Z,14.90
2023-05-07T17:11:41.179Z,14.80
2023-05-07T17:16:43.789Z,14.60
2023-05-07T17:21:46.254Z,14.40
2023-05-07T17:26:49.146Z,14.00
2023-05-07T17:31:51.761Z,13.70
2023-05-07T17:36:54.683Z,13.40
2023-05-07T17:41:57.323Z,13.20
2023-05-07T17:46:59.868Z,13.00
2023-05-07T17:52:02.426Z,12.80
2023-05-07T17:57:05.011Z,12.50
2023-05-07T18:02:07.429Z,12.00
2023-05-07T18:07:10.000Z,11.70
2023-05-07T18:12:12.935Z,10.00
2023-05-07T18:17:16.395Z,9.90
2023-05-07T18:22:19.126Z,9.30
2023-05-07T18:27:21.812Z,9.00
2023-05-07T18:32:24.495Z,8.30
2023-05-07T18:37:27.146Z,8.20
2023-05-07T18:42:30.658Z,8.00
2023-05-07T18:47:33.164Z,7.40
2023-05-07T18:52:36.201Z,7.30
2023-05-07T18:57:38.770Z,7.00
2023-05-07T19:02:41.318Z,6.80
2023-05-07T19:07:44.045Z,6.50
2023-05-07T19:12:46.529Z,6.40
2023-05-07T19:17:50.291Z,6.20
2023-05-07T19:22:52.821Z,6.10
2023-05-07T19:27:56.667Z,6.00
2023-05-07T19:33:02.426Z,6.10
2023-05-07T19:38:06.144Z,6.20
2023-05-07T19:43:08.624Z,6.40
2023-05-07T19:48:11.244Z,6.30
2023-05-07T19:53:13.792Z,6.30
2023-05-07T19:58:16.893Z,6.20
2023-05-07T20:03:19.425Z,6.20
2023-05-07T20:08:22.022Z,6.10
2023-05-07T20:13:24.838Z,6.00
2023-05-07T20:18:28.972Z,5.90
2023-05-07T20:23:31.516Z,6.00
2023-05-07T20:28:34.065Z,5.90
2023-05-07T20:33:40.697Z,5.80
2023-05-07T20:38:44.267Z,5.80
2023-05-07T20:43:46.979Z,5.70
2023-05-07T20:48:49.851Z,5.80
2023-05-07T20:53:52.441Z,5.70
2023-05-07T20:58:54.946Z,5.60
2023-05-07T21:03:57.535Z,5.50
2023-05-07T21:08:59.928Z,5.40
2023-05-07T21:14:02.394Z,5.30
2023-05-07T21:19:05.215Z,5.30
2023-05-07T21:24:08.351Z,5.20
2023-05-07T21:29:11.005Z,5.00
2023-05-07T21:34:13.592Z,4.80
2023-05-07T21:39:16.091Z,4.70
2023-05-07T21:44:18.676Z,4.60
2023-05-07T21:49:21.103Z,4.40
2023-05-07T21:54:23.485Z,4.30
2023-05-07T21:59:26.031Z,4.10
2023-05-07T22:09:31.442Z,3.80
2023-05-07T22:14:33.909Z,3.60
2023-05-07T22:19:36.467Z,3.50
2023-05-07T22:24:38.875Z,3.70
2023-05-07T22:29:41.413Z,3.40
2023-05-07T22:34:43.960Z,3.20
2023-05-07T22:39:46.393Z,3.10
2023-05-07T22:44:53.274Z,3.00
2023-05-07T22:49:56.237Z,2.90
2023-05-07T22:54:58.759Z,2.80
2023-05-07T23:00:01.296Z,2.70
2023-05-07T23:05:04.167Z,2.60
2023-05-07T23:10:07.644Z,2.50
2023-05-07T23:15:10.561Z,2.40
2023-05-07T23:20:14.270Z,2.30
2023-05-07T23:25:18.166Z,2.30
2023-05-07T23:30:21.142Z,2.20
2023-05-07T23:35:23.678Z,2.10
2023-05-07T23:40:27.035Z,1.90
2023-05-07T23:45:29.482Z,1.90
2023-05-07T23:50:31.967Z,1.90
2023-05-07T23:55:34.590Z,1.70
